sensor_id;sensor_type;location;lat;lon;timestamp;pressure;altitude;pressure_sealevel;temperature;humidity
50650;BME280;36621;60.058;30.346;2023-05-11T04:14:11;102156.44;;;15.08;38.45
50650;BME280;36621;60.058;30.346;2023-05-11T04:21:43;102166.59;;;15.86;37.47
50650;BME280;36621;60.058;30.346;2023-05-11T04:29:17;102176.09;;;17.12;35.34
50650;BME280;36621;60.058;30.346;2023-05-11T04:36:50;102143.28;;;18.30;30.40
50650;BME280;36621;60.058;30.346;2023-05-11T04:44:25;102163.03;;;21.09;24.61
50650;BME280;36621;60.058;30.346;2023-05-11T04:51:57;102165.34;;;22.25;21.63
50650;BME280;36621;60.058;30.346;2023-05-11T04:59:30;102179.56;;;22.86;21.53
50650;BME280;36621;60.058;30.346;2023-05-11T05:07:03;102163.72;;;23.62;20.87
50650;BME280;36621;60.058;30.346;2023-05-11T05:14:37;102166.31;;;24.76;19.59
50650;BME280;36621;60.058;30.346;2023-05-11T05:22:12;102159.16;;;25.89;18.33
50650;BME280;36621;60.058;30.346;2023-05-11T05:29:46;102157.19;;;28.00;16.07
50650;BME280;36621;60.058;30.346;2023-05-11T05:37:19;102143.97;;;29.12;14.92
50650;BME280;36621;60.058;30.346;2023-05-11T05:44:52;102141.34;;;29.39;14.61
50650;BME280;36621;60.058;30.346;2023-05-11T05:52:44;102154.69;;;27.70;16.04
50650;BME280;36621;60.058;30.346;2023-05-11T18:03:09;102045.47;;;17.27;29.92
50650;BME280;36621;60.058;30.346;2023-05-11T18:10:42;102059.16;;;16.98;30.43
50650;BME280;36621;60.058;30.346;2023-05-11T18:18:15;102064.19;;;16.80;30.52
50650;BME280;36621;60.058;30.346;2023-05-11T18:25:47;102066.75;;;16.61;30.71
50650;BME280;36621;60.058;30.346;2023-05-11T18:33:20;102061.56;;;16.44;31.26
50650;BME280;36621;60.058;30.346;2023-05-11T18:40:52;102061.63;;;16.24;32.15
50650;BME280;36621;60.058;30.346;2023-05-11T18:48:25;102054.50;;;16.02;32.58
50650;BME280;36621;60.058;30.346;2023-05-11T18:55:58;102076.25;;;15.88;32.67
50650;BME280;36621;60.058;30.346;2023-05-11T19:03:31;102037.41;;;15.59;32.83
50650;BME280;36621;60.058;30.346;2023-05-11T19:11:04;102070.16;;;15.60;33.60
50650;BME280;36621;60.058;30.346;2023-05-11T19:18:38;102017.28;;;15.17;34.59
50650;BME280;36621;60.058;30.346;2023-05-11T19:26:10;102052.50;;;15.15;34.78
50650;BME280;36621;60.058;30.346;2023-05-11T19:33:42;102076.44;;;15.20;34.57
50650;BME280;36621;60.058;30.346;2023-05-11T19:41:14;102068.13;;;15.04;35.14
50650;BME280;36621;60.058;30.346;2023-05-11T19:48:48;102080.22;;;15.03;34.29
50650;BME280;36621;60.058;30.346;2023-05-11T19:56:20;102058.47;;;14.86;34.69
50650;BME280;36621;60.058;30.346;2023-05-11T20:03:53;102082.38;;;14.96;34.87
50650;BME280;36621;60.058;30.346;2023-05-11T20:11:25;102066.63;;;14.76;35.33
50650;BME280;36621;60.058;30.346;2023-05-11T20:18:57;102100.19;;;14.78;35.61
50650;BME280;36621;60.058;30.346;2023-05-11T20:26:30;102105.94;;;14.66;36.73
50650;BME280;36621;60.058;30.346;2023-05-11T20:34:02;102103.09;;;14.56;36.70
50650;BME280;36621;60.058;30.346;2023-05-11T20:41:34;102103.25;;;14.39;37.52
50650;BME280;36621;60.058;30.346;2023-05-11T20:49:07;102102.94;;;14.30;37.64
50650;BME280;36621;60.058;30.346;2023-05-11T20:56:41;102114.44;;;14.27;39.13
50650;BME280;36621;60.058;30.346;2023-05-11T21:04:14;102123.69;;;14.16;39.34
50650;BME280;36621;60.058;30.346;2023-05-11T21:11:50;102113.59;;;13.89;40.58
50650;BME280;36621;60.058;30.346;2023-05-11T21:19:23;102115.47;;;13.83;39.98
50650;BME280;36621;60.058;30.346;2023-05-11T21:26:55;102142.63;;;13.80;40.98
50650;BME280;36621;60.058;30.346;2023-05-11T21:34:28;102147.50;;;13.72;42.07
50650;BME280;36621;60.058;30.346;2023-05-11T21:42:00;102144.06;;;13.60;42.58
50650;BME280;36621;60.058;30.346;2023-05-11T21:49:33;102155.25;;;13.53;42.46
50650;BME280;36621;60.058;30.346;2023-05-11T21:57:20;102159.53;;;13.71;41.02
50650;BME280;36621;60.058;30.346;2023-05-11T22:04:53;102133.88;;;13.33;42.38
50650;BME280;36621;60.058;30.346;2023-05-11T22:12:25;102169.09;;;13.42;42.25
50650;BME280;36621;60.058;30.346;2023-05-11T22:19:58;102153.16;;;13.38;41.13
50650;BME280;36621;60.058;30.346;2023-05-11T22:27:30;102154.75;;;13.34;40.90
50650;BME280;36621;60.058;30.346;2023-05-11T22:35:03;102152.19;;;13.28;40.20
50650;BME280;36621;60.058;30.346;2023-05-11T22:42:36;102152.88;;;13.18;39.57
50650;BME280;36621;60.058;30.346;2023-05-11T22:50:09;102146.19;;;13.31;39.23
50650;BME280;36621;60.058;30.346;2023-05-11T22:57:42;102136.94;;;13.15;38.66
50650;BME280;36621;60.058;30.346;2023-05-11T23:05:15;102154.56;;;13.19;38.62
50650;BME280;36621;60.058;30.346;2023-05-11T23:12:47;102151.56;;;13.20;37.62
50650;BME280;36621;60.058;30.346;2023-05-11T23:20:20;102140.00;;;13.18;38.03
50650;BME280;36621;60.058;30.346;2023-05-11T23:27:52;102143.66;;;13.02;40.30
50650;BME280;36621;60.058;30.346;2023-05-11T23:35:26;102125.00;;;12.82;40.09
50650;BME280;36621;60.058;30.346;2023-05-11T23:42:58;102136.88;;;12.88;39.93
50650;BME280;36621;60.058;30.346;2023-05-11T23:50:30;102145.19;;;12.93;40.98
50650;BME280;36621;60.058;30.346;2023-05-11T23:58:02;102146.50;;;12.90;41.27
